If you wish to contribute or participate in the discussions about articles you are invited to join SKYbrary as a registered user

 Actions

Aurillac Airport

From SKYbrary Wiki

LFLW
Airport
ICAO: LFLW – IATA: AUR
Summary
Name Aurillac Airport
Region Europe
Territory France FR.gif
Location , Auvergne
Serving Aurillac
Elevation 638.861 m
2,096 ft
2,096 ft638.861 m
Type medium airport
Coordinates 44° 53' 29.00" N, 2° 25' 19.00" E
Runways
Designator Length Width Surface ROPS
15/33 1700 m5,577.428 ft
30 m98.425 ft
ASP /


METAR
Observation LFLW 232000Z AUTO 11007KT 9999 ////// 12/09 Q1008
Station Aurillac
Date/Time 23 October 2019 20:00:00
Wind direction 110°
Wind speed 07 kts
Lowest cloud amount n/a
Temperature 12°C
Dew point 9°C
Humidity 81%
QNH 1008 hPa
Weather condition n/a